sensor_id;sensor_type;location;lat;lon;timestamp;temperature;humidity
42715;DHT22;28351;51.480;5.706;2022-12-20T00:02:05;11.20;99.90
42715;DHT22;28351;51.480;5.706;2022-12-20T00:04:31;11.10;99.90
42715;DHT22;28351;51.480;5.706;2022-12-20T00:06:57;11.10;99.90
42715;DHT22;28351;51.480;5.706;2022-12-20T00:09:24;11.00;99.90
42715;DHT22;28351;51.480;5.706;2022-12-20T00:11:50;11.10;99.90
42715;DHT22;28351;51.480;5.706;2022-12-20T00:14:16;11.10;99.90
42715;DHT22;28351;51.480;5.706;2022-12-20T00:16:42;11.10;99.90
42715;DHT22;28351;51.480;5.706;2022-12-20T00:19:09;11.10;99.90
42715;DHT22;28351;51.480;5.706;2022-12-20T00:21:35;11.20;99.90
42715;DHT22;28351;51.480;5.706;2022-12-20T00:24:11;11.30;99.90
42715;DHT22;28351;51.480;5.706;2022-12-20T00:26:58;11.30;99.90
42715;DHT22;28351;51.480;5.706;2022-12-20T00:29:36;11.20;99.90
42715;DHT22;28351;51.480;5.706;2022-12-20T00:32:03;11.30;99.90
42715;DHT22;28351;51.480;5.706;2022-12-20T00:34:29;11.30;99.90
42715;DHT22;28351;51.480;5.706;2022-12-20T00:36:55;11.40;99.90
42715;DHT22;28351;51.480;5.706;2022-12-20T00:39:20;11.30;99.90
42715;DHT22;28351;51.480;5.706;2022-12-20T00:41:46;11.30;99.90
42715;DHT22;28351;51.480;5.706;2022-12-20T00:44:14;11.30;99.90
42715;DHT22;28351;51.480;5.706;2022-12-20T00:46:40;11.30;99.90
42715;DHT22;28351;51.480;5.706;2022-12-20T00:49:06;11.30;99.90
42715;DHT22;28351;51.480;5.706;2022-12-20T00:51:31;11.40;99.90
42715;DHT22;28351;51.480;5.706;2022-12-20T00:53:57;11.40;99.90
42715;DHT22;28351;51.480;5.706;2022-12-20T00:56:23;11.50;99.90
42715;DHT22;28351;51.480;5.706;2022-12-20T00:58:52;11.50;99.90
42715;DHT22;28351;51.480;5.706;2022-12-20T01:01:24;11.50;99.90
42715;DHT22;28351;51.480;5.706;2022-12-20T01:03:51;11.50;99.90
42715;DHT22;28351;51.480;5.706;2022-12-20T01:06:17;11.40;99.90
42715;DHT22;28351;51.480;5.706;2022-12-20T01:08:46;11.50;99.90
42715;DHT22;28351;51.480;5.706;2022-12-20T01:11:21;11.50;99.90
42715;DHT22;28351;51.480;5.706;2022-12-20T01:13:50;11.50;99.90
42715;DHT22;28351;51.480;5.706;2022-12-20T01:16:19;11.50;99.90
42715;DHT22;28351;51.480;5.706;2022-12-20T01:18:46;11.50;99.90
42715;DHT22;28351;51.480;5.706;2022-12-20T01:21:15;11.60;99.90
42715;DHT22;28351;51.480;5.706;2022-12-20T01:23:41;11.60;99.90
42715;DHT22;28351;51.480;5.706;2022-12-20T01:26:10;11.60;99.90
42715;DHT22;28351;51.480;5.706;2022-12-20T01:28:42;11.50;99.90
42715;DHT22;28351;51.480;5.706;2022-12-20T01:31:09;11.40;99.90
42715;DHT22;28351;51.480;5.706;2022-12-20T01:33:35;11.30;99.90
42715;DHT22;28351;51.480;5.706;2022-12-20T01:36:04;11.10;99.90
42715;DHT22;28351;51.480;5.706;2022-12-20T01:39:03;11.00;99.90
42715;DHT22;28351;51.480;5.706;2022-12-20T01:41:30;10.80;99.90
42715;DHT22;28351;51.480;5.706;2022-12-20T01:46:25;10.60;99.90
42715;DHT22;28351;51.480;5.706;2022-12-20T01:49:05;10.40;99.90
42715;DHT22;28351;51.480;5.706;2022-12-20T01:51:36;10.40;99.90
42715;DHT22;28351;51.480;5.706;2022-12-20T01:54:32;10.40;99.90
42715;DHT22;28351;51.480;5.706;2022-12-20T01:57:21;10.40;99.90
42715;DHT22;28351;51.480;5.706;2022-12-20T02:00:03;10.40;99.90
42715;DHT22;28351;51.480;5.706;2022-12-20T02:02:31;10.30;99.90
42715;DHT22;28351;51.480;5.706;2022-12-20T02:04:57;10.20;99.90
42715;DHT22;28351;51.480;5.706;2022-12-20T02:07:25;10.10;99.90
42715;DHT22;28351;51.480;5.706;2022-12-20T02:10:05;10.10;99.90
42715;DHT22;28351;51.480;5.706;2022-12-20T02:12:55;10.10;99.90
42715;DHT22;28351;51.480;5.706;2022-12-20T02:15:53;10.00;99.90
42715;DHT22;28351;51.480;5.706;2022-12-20T02:18:22;10.00;99.90
42715;DHT22;28351;51.480;5.706;2022-12-20T02:23:48;10.00;99.90
42715;DHT22;28351;51.480;5.706;2022-12-20T02:32:03;10.00;99.90
42715;DHT22;28351;51.480;5.706;2022-12-20T02:34:34;10.00;99.90
42715;DHT22;28351;51.480;5.706;2022-12-20T02:37:01;10.10;99.90
42715;DHT22;28351;51.480;5.706;2022-12-20T02:39:30;10.00;99.90
42715;DHT22;28351;51.480;5.706;2022-12-20T02:42:06;10.00;99.90
42715;DHT22;28351;51.480;5.706;2022-12-20T02:44:37;10.10;99.90
42715;DHT22;28351;51.480;5.706;2022-12-20T02:47:39;10.10;99.90
42715;DHT22;28351;51.480;5.706;2022-12-20T02:50:07;10.20;99.90
42715;DHT22;28351;51.480;5.706;2022-12-20T02:52:34;10.20;99.90
42715;DHT22;28351;51.480;5.706;2022-12-20T02:55:02;10.20;99.90
42715;DHT22;28351;51.480;5.706;2022-12-20T02:57:38;10.30;99.90
42715;DHT22;28351;51.480;5.706;2022-12-20T03:00:17;10.30;99.90
42715;DHT22;28351;51.480;5.706;2022-12-20T03:02:44;10.40;99.90
42715;DHT22;28351;51.480;5.706;2022-12-20T03:05:29;10.60;99.90
42715;DHT22;28351;51.480;5.706;2022-12-20T03:07:57;10.70;99.90
42715;DHT22;28351;51.480;5.706;2022-12-20T03:10:23;10.70;99.90
42715;DHT22;28351;51.480;5.706;2022-12-20T03:12:48;10.70;99.90
42715;DHT22;28351;51.480;5.706;2022-12-20T03:15:14;10.70;99.90
42715;DHT22;28351;51.480;5.706;2022-12-20T03:17:40;10.80;99.90
42715;DHT22;28351;51.480;5.706;2022-12-20T03:20:11;10.90;99.90
42715;DHT22;28351;51.480;5.706;2022-12-20T03:22:37;10.90;99.90
42715;DHT22;28351;51.480;5.706;2022-12-20T03:25:07;10.90;99.90
42715;DHT22;28351;51.480;5.706;2022-12-20T03:27:33;11.00;99.90
42715;DHT22;28351;51.480;5.706;2022-12-20T03:29:58;11.00;99.90
42715;DHT22;28351;51.480;5.706;2022-12-20T03:32:24;11.10;99.90
42715;DHT22;28351;51.480;5.706;2022-12-20T03:34:50;11.20;99.90
42715;DHT22;28351;51.480;5.706;2022-12-20T03:37:28;11.20;99.90
42715;DHT22;28351;51.480;5.706;2022-12-20T03:39:59;11.20;99.90
42715;DHT22;28351;51.480;5.706;2022-12-20T03:42:25;11.20;99.90
42715;DHT22;28351;51.480;5.706;2022-12-20T03:44:51;11.30;99.90
42715;DHT22;28351;51.480;5.706;2022-12-20T03:47:22;11.30;99.90
42715;DHT22;28351;51.480;5.706;2022-12-20T03:49:51;11.40;99.90
42715;DHT22;28351;51.480;5.706;2022-12-20T03:52:22;11.40;99.90
42715;DHT22;28351;51.480;5.706;2022-12-20T03:54:47;11.50;99.90
42715;DHT22;28351;51.480;5.706;2022-12-20T03:57:13;11.60;99.90
42715;DHT22;28351;51.480;5.706;2022-12-20T03:59:39;11.60;99.90
42715;DHT22;28351;51.480;5.706;2022-12-20T04:02:05;11.60;99.90
42715;DHT22;28351;51.480;5.706;2022-12-20T04:04:43;11.50;99.90
42715;DHT22;28351;51.480;5.706;2022-12-20T04:07:09;11.50;99.90
42715;DHT22;28351;51.480;5.706;2022-12-20T04:09:40;11.50;99.90
42715;DHT22;28351;51.480;5.706;2022-12-20T04:12:15;11.50;99.90
42715;DHT22;28351;51.480;5.706;2022-12-20T04:14:41;11.50;99.90
42715;DHT22;28351;51.480;5.706;2022-12-20T04:17:06;11.60;99.90
42715;DHT22;28351;51.480;5.706;2022-12-20T04:19:32;11.60;99.90
42715;DHT22;28351;51.480;5.706;2022-12-20T04:22:07;11.60;99.90
42715;DHT22;28351;51.480;5.706;2022-12-20T04:24:33;11.60;99.90
42715;DHT22;28351;51.480;5.706;2022-12-20T04:27:02;11.60;99.90
42715;DHT22;28351;51.480;5.706;2022-12-20T04:29:33;11.60;99.90
42715;DHT22;28351;51.480;5.706;2022-12-20T04:31:59;11.60;99.90
42715;DHT22;28351;51.480;5.706;2022-12-20T04:34:25;11.60;99.90
42715;DHT22;28351;51.480;5.706;2022-12-20T04:36:52;11.60;99.90
42715;DHT22;28351;51.480;5.706;2022-12-20T04:39:18;11.70;99.90
42715;DHT22;28351;51.480;5.706;2022-12-20T04:41:43;11.70;99.90
42715;DHT22;28351;51.480;5.706;2022-12-20T04:44:09;11.70;99.90
42715;DHT22;28351;51.480;5.706;2022-12-20T04:46:35;11.80;99.90
42715;DHT22;28351;51.480;5.706;2022-12-20T04:51:45;11.70;99.90
42715;DHT22;28351;51.480;5.706;2022-12-20T04:54:11;11.60;99.90
42715;DHT22;28351;51.480;5.706;2022-12-20T04:56:49;11.70;99.90
42715;DHT22;28351;51.480;5.706;2022-12-20T04:59:14;11.70;99.90
42715;DHT22;28351;51.480;5.706;2022-12-20T05:01:58;11.70;99.90
42715;DHT22;28351;51.480;5.706;2022-12-20T05:04:35;11.70;99.90
42715;DHT22;28351;51.480;5.706;2022-12-20T05:07:07;11.60;99.90
42715;DHT22;28351;51.480;5.706;2022-12-20T05:09:45;11.60;99.90
42715;DHT22;28351;51.480;5.706;2022-12-20T05:12:10;11.50;99.90
42715;DHT22;28351;51.480;5.706;2022-12-20T05:14:39;11.50;99.90
42715;DHT22;28351;51.480;5.706;2022-12-20T05:17:05;11.40;99.90
42715;DHT22;28351;51.480;5.706;2022-12-20T05:19:40;11.40;99.90
42715;DHT22;28351;51.480;5.706;2022-12-20T05:22:05;11.30;99.90
42715;DHT22;28351;51.480;5.706;2022-12-20T05:24:49;11.30;99.90
42715;DHT22;28351;51.480;5.706;2022-12-20T05:27:34;11.40;99.90
42715;DHT22;28351;51.480;5.706;2022-12-20T05:29:59;11.30;99.90
42715;DHT22;28351;51.480;5.706;2022-12-20T05:32:25;11.20;99.90
42715;DHT22;28351;51.480;5.706;2022-12-20T05:34:53;11.20;99.90
42715;DHT22;28351;51.480;5.706;2022-12-20T05:37:19;11.20;99.90
42715;DHT22;28351;51.480;5.706;2022-12-20T05:39:57;11.20;99.90
42715;DHT22;28351;51.480;5.706;2022-12-20T05:42:26;11.10;99.90
42715;DHT22;28351;51.480;5.706;2022-12-20T05:44:51;11.10;99.90
42715;DHT22;28351;51.480;5.706;2022-12-20T05:47:20;11.10;99.90
42715;DHT22;28351;51.480;5.706;2022-12-20T05:49:46;11.10;99.90
42715;DHT22;28351;51.480;5.706;2022-12-20T05:52:12;11.10;99.90
42715;DHT22;28351;51.480;5.706;2022-12-20T05:54:37;11.10;99.90
42715;DHT22;28351;51.480;5.706;2022-12-20T05:57:03;11.10;99.90
42715;DHT22;28351;51.480;5.706;2022-12-20T05:59:31;11.10;99.90
42715;DHT22;28351;51.480;5.706;2022-12-20T06:01:57;11.10;99.90
42715;DHT22;28351;51.480;5.706;2022-12-20T06:04:32;11.00;99.90
42715;DHT22;28351;51.480;5.706;2022-12-20T06:06:58;11.10;99.90
42715;DHT22;28351;51.480;5.706;2022-12-20T06:09:26;11.00;99.90
42715;DHT22;28351;51.480;5.706;2022-12-20T06:11:51;11.00;99.90
42715;DHT22;28351;51.480;5.706;2022-12-20T06:14:20;11.00;99.90
42715;DHT22;28351;51.480;5.706;2022-12-20T06:17:03;11.00;99.90
42715;DHT22;28351;51.480;5.706;2022-12-20T06:19:32;11.00;99.90
42715;DHT22;28351;51.480;5.706;2022-12-20T06:21:58;10.90;99.90
42715;DHT22;28351;51.480;5.706;2022-12-20T06:24:31;11.00;99.90
42715;DHT22;28351;51.480;5.706;2022-12-20T06:26:58;10.90;99.90
42715;DHT22;28351;51.480;5.706;2022-12-20T06:29:23;10.90;99.90
42715;DHT22;28351;51.480;5.706;2022-12-20T06:31:49;10.80;99.90
42715;DHT22;28351;51.480;5.706;2022-12-20T06:34:15;10.70;99.90
42715;DHT22;28351;51.480;5.706;2022-12-20T06:36:41;10.70;99.90
42715;DHT22;28351;51.480;5.706;2022-12-20T06:39:07;10.70;99.90
42715;DHT22;28351;51.480;5.706;2022-12-20T06:41:34;10.70;99.90
42715;DHT22;28351;51.480;5.706;2022-12-20T06:44:00;10.70;99.90
42715;DHT22;28351;51.480;5.706;2022-12-20T06:46:26;10.70;99.90
42715;DHT22;28351;51.480;5.706;2022-12-20T06:48:52;10.60;99.90
42715;DHT22;28351;51.480;5.706;2022-12-20T06:51:18;10.60;99.90
42715;DHT22;28351;51.480;5.706;2022-12-20T06:53:43;10.60;99.90
42715;DHT22;28351;51.480;5.706;2022-12-20T06:56:09;10.60;99.90
42715;DHT22;28351;51.480;5.706;2022-12-20T06:58:54;10.50;99.90
42715;DHT22;28351;51.480;5.706;2022-12-20T07:01:20;10.60;99.90
42715;DHT22;28351;51.480;5.706;2022-12-20T07:03:46;10.60;99.90
42715;DHT22;28351;51.480;5.706;2022-12-20T07:06:11;10.60;99.90
42715;DHT22;28351;51.480;5.706;2022-12-20T07:08:40;10.70;99.90
42715;DHT22;28351;51.480;5.706;2022-12-20T07:11:08;10.70;99.90
42715;DHT22;28351;51.480;5.706;2022-12-20T07:13:34;10.60;99.90
42715;DHT22;28351;51.480;5.706;2022-12-20T07:16:01;10.60;99.90
42715;DHT22;28351;51.480;5.706;2022-12-20T07:18:27;10.60;99.90
42715;DHT22;28351;51.480;5.706;2022-12-20T07:20:53;10.60;99.90
42715;DHT22;28351;51.480;5.706;2022-12-20T07:23:18;10.60;99.90
42715;DHT22;28351;51.480;5.706;2022-12-20T07:25:55;10.60;99.90
42715;DHT22;28351;51.480;5.706;2022-12-20T07:28:22;10.60;99.90
42715;DHT22;28351;51.480;5.706;2022-12-20T07:30:48;10.60;99.90
42715;DHT22;28351;51.480;5.706;2022-12-20T07:33:14;10.60;99.90
42715;DHT22;28351;51.480;5.706;2022-12-20T07:35:39;10.60;99.90
42715;DHT22;28351;51.480;5.706;2022-12-20T07:38:06;10.70;99.90
42715;DHT22;28351;51.480;5.706;2022-12-20T07:40:34;10.70;99.90
42715;DHT22;28351;51.480;5.706;2022-12-20T07:43:00;10.70;99.90
42715;DHT22;28351;51.480;5.706;2022-12-20T07:45:26;10.80;99.90
42715;DHT22;28351;51.480;5.706;2022-12-20T07:48:04;10.70;99.90
42715;DHT22;28351;51.480;5.706;2022-12-20T07:50:39;10.70;99.90
42715;DHT22;28351;51.480;5.706;2022-12-20T07:53:14;10.70;99.90
42715;DHT22;28351;51.480;5.706;2022-12-20T07:55:40;10.80;99.90
42715;DHT22;28351;51.480;5.706;2022-12-20T07:58:08;10.80;99.90
42715;DHT22;28351;51.480;5.706;2022-12-20T08:00:35;10.90;99.90
42715;DHT22;28351;51.480;5.706;2022-12-20T08:03:10;11.00;99.90
42715;DHT22;28351;51.480;5.706;2022-12-20T08:05:39;11.10;99.90
42715;DHT22;28351;51.480;5.706;2022-12-20T08:08:08;11.30;99.90
42715;DHT22;28351;51.480;5.706;2022-12-20T08:10:34;11.30;99.90
42715;DHT22;28351;51.480;5.706;2022-12-20T08:13:01;11.30;99.90
42715;DHT22;28351;51.480;5.706;2022-12-20T08:15:28;11.40;99.90
42715;DHT22;28351;51.480;5.706;2022-12-20T08:17:53;11.40;99.90
42715;DHT22;28351;51.480;5.706;2022-12-20T08:20:19;11.40;99.90
42715;DHT22;28351;51.480;5.706;2022-12-20T08:22:45;11.40;99.90
42715;DHT22;28351;51.480;5.706;2022-12-20T08:25:10;11.40;99.90
42715;DHT22;28351;51.480;5.706;2022-12-20T08:27:36;11.30;99.90
42715;DHT22;28351;51.480;5.706;2022-12-20T08:30:03;11.30;99.90
42715;DHT22;28351;51.480;5.706;2022-12-20T08:32:29;11.30;99.90
42715;DHT22;28351;51.480;5.706;2022-12-20T08:34:58;11.20;99.90
42715;DHT22;28351;51.480;5.706;2022-12-20T08:37:31;11.30;99.90
42715;DHT22;28351;51.480;5.706;2022-12-20T08:39:57;11.20;99.90
42715;DHT22;28351;51.480;5.706;2022-12-20T08:42:22;11.20;99.90
42715;DHT22;28351;51.480;5.706;2022-12-20T08:44:48;11.20;99.90
42715;DHT22;28351;51.480;5.706;2022-12-20T08:47:17;11.20;99.90
42715;DHT22;28351;51.480;5.706;2022-12-20T08:49:42;11.10;99.90
42715;DHT22;28351;51.480;5.706;2022-12-20T08:52:08;11.30;99.90
42715;DHT22;28351;51.480;5.706;2022-12-20T08:54:34;11.20;99.90
42715;DHT22;28351;51.480;5.706;2022-12-20T08:57:25;11.10;99.90
42715;DHT22;28351;51.480;5.706;2022-12-20T08:59:51;11.00;99.90
42715;DHT22;28351;51.480;5.706;2022-12-20T09:02:16;11.00;99.90
42715;DHT22;28351;51.480;5.706;2022-12-20T09:04:42;10.90;99.90
42715;DHT22;28351;51.480;5.706;2022-12-20T09:07:08;10.90;99.90
42715;DHT22;28351;51.480;5.706;2022-12-20T09:09:34;10.90;99.90
42715;DHT22;28351;51.480;5.706;2022-12-20T09:12:00;10.90;99.90
42715;DHT22;28351;51.480;5.706;2022-12-20T09:14:26;10.90;99.90
42715;DHT22;28351;51.480;5.706;2022-12-20T09:16:51;11.00;99.90
42715;DHT22;28351;51.480;5.706;2022-12-20T09:19:17;11.00;99.90
42715;DHT22;28351;51.480;5.706;2022-12-20T09:21:43;11.00;99.90
42715;DHT22;28351;51.480;5.706;2022-12-20T09:24:10;11.00;99.90
42715;DHT22;28351;51.480;5.706;2022-12-20T09:26:36;11.00;99.90
42715;DHT22;28351;51.480;5.706;2022-12-20T09:29:03;11.10;99.90
42715;DHT22;28351;51.480;5.706;2022-12-20T09:31:29;11.20;99.90
42715;DHT22;28351;51.480;5.706;2022-12-20T09:33:57;11.20;99.90
42715;DHT22;28351;51.480;5.706;2022-12-20T09:36:24;11.40;99.90
42715;DHT22;28351;51.480;5.706;2022-12-20T09:38:50;11.50;99.90
42715;DHT22;28351;51.480;5.706;2022-12-20T09:41:35;11.70;99.90
42715;DHT22;28351;51.480;5.706;2022-12-20T09:46:47;11.80;99.90
42715;DHT22;28351;51.480;5.706;2022-12-20T09:49:16;11.90;99.90
42715;DHT22;28351;51.480;5.706;2022-12-20T09:54:41;11.80;99.90
42715;DHT22;28351;51.480;5.706;2022-12-20T10:00:29;11.80;99.90
42715;DHT22;28351;51.480;5.706;2022-12-20T10:03:02;11.80;99.90
42715;DHT22;28351;51.480;5.706;2022-12-20T10:05:51;11.70;99.90
42715;DHT22;28351;51.480;5.706;2022-12-20T10:19:49;11.80;99.90
42715;DHT22;28351;51.480;5.706;2022-12-20T10:22:18;11.90;99.90
42715;DHT22;28351;51.480;5.706;2022-12-20T10:24:52;12.00;99.90
42715;DHT22;28351;51.480;5.706;2022-12-20T10:27:20;12.00;99.90
42715;DHT22;28351;51.480;5.706;2022-12-20T10:29:48;12.20;99.90
42715;DHT22;28351;51.480;5.706;2022-12-20T10:32:20;12.30;99.90
42715;DHT22;28351;51.480;5.706;2022-12-20T10:37:35;12.40;99.90
42715;DHT22;28351;51.480;5.706;2022-12-20T10:40:01;12.40;99.90
42715;DHT22;28351;51.480;5.706;2022-12-20T10:44:59;12.30;99.90
42715;DHT22;28351;51.480;5.706;2022-12-20T10:47:40;12.00;99.90
42715;DHT22;28351;51.480;5.706;2022-12-20T10:50:19;11.80;99.90
42715;DHT22;28351;51.480;5.706;2022-12-20T10:53:01;11.60;99.90
42715;DHT22;28351;51.480;5.706;2022-12-20T10:55:39;11.50;99.90
42715;DHT22;28351;51.480;5.706;2022-12-20T10:58:16;11.50;99.90
42715;DHT22;28351;51.480;5.706;2022-12-20T11:00:44;11.40;99.90
42715;DHT22;28351;51.480;5.706;2022-12-20T11:03:18;11.40;99.90
42715;DHT22;28351;51.480;5.706;2022-12-20T11:05:56;11.30;99.90
42715;DHT22;28351;51.480;5.706;2022-12-20T11:08:24;11.20;99.90
42715;DHT22;28351;51.480;5.706;2022-12-20T11:11:21;11.10;99.90
42715;DHT22;28351;51.480;5.706;2022-12-20T11:13:48;11.10;99.90
42715;DHT22;28351;51.480;5.706;2022-12-20T11:16:34;11.00;99.90
42715;DHT22;28351;51.480;5.706;2022-12-20T11:21:44;11.00;99.90
42715;DHT22;28351;51.480;5.706;2022-12-20T11:24:13;11.10;99.90
42715;DHT22;28351;51.480;5.706;2022-12-20T11:37:25;11.20;99.90
42715;DHT22;28351;51.480;5.706;2022-12-20T11:49:06;11.10;99.90
42715;DHT22;28351;51.480;5.706;2022-12-20T11:51:45;11.00;99.90
42715;DHT22;28351;51.480;5.706;2022-12-20T11:54:42;11.00;99.90
42715;DHT22;28351;51.480;5.706;2022-12-20T11:57:15;11.00;99.90
42715;DHT22;28351;51.480;5.706;2022-12-20T11:59:49;11.00;99.90
42715;DHT22;28351;51.480;5.706;2022-12-20T12:05:00;11.00;99.90
42715;DHT22;28351;51.480;5.706;2022-12-20T12:07:31;11.00;99.90
42715;DHT22;28351;51.480;5.706;2022-12-20T12:10:20;10.90;99.90
42715;DHT22;28351;51.480;5.706;2022-12-20T12:12:56;11.00;99.90
42715;DHT22;28351;51.480;5.706;2022-12-20T12:18:18;11.00;99.90
42715;DHT22;28351;51.480;5.706;2022-12-20T12:23:32;11.10;99.90
42715;DHT22;28351;51.480;5.706;2022-12-20T12:26:10;11.10;99.90
42715;DHT22;28351;51.480;5.706;2022-12-20T12:28:36;11.10;99.90
42715;DHT22;28351;51.480;5.706;2022-12-20T12:31:13;11.10;99.90
42715;DHT22;28351;51.480;5.706;2022-12-20T12:33:57;11.10;99.90
42715;DHT22;28351;51.480;5.706;2022-12-20T12:45:06;11.10;99.90
42715;DHT22;28351;51.480;5.706;2022-12-20T12:47:43;11.00;99.90
42715;DHT22;28351;51.480;5.706;2022-12-20T12:52:56;11.00;99.90
42715;DHT22;28351;51.480;5.706;2022-12-20T12:55:46;11.00;99.90
42715;DHT22;28351;51.480;5.706;2022-12-20T13:11:51;10.90;99.90
42715;DHT22;28351;51.480;5.706;2022-12-20T13:16:53;10.90;99.90
42715;DHT22;28351;51.480;5.706;2022-12-20T13:22:19;10.90;99.90
42715;DHT22;28351;51.480;5.706;2022-12-20T13:24:57;10.80;99.90
42715;DHT22;28351;51.480;5.706;2022-12-20T13:27:34;10.90;99.90
42715;DHT22;28351;51.480;5.706;2022-12-20T13:35:55;10.80;99.90
42715;DHT22;28351;51.480;5.706;2022-12-20T13:46:49;10.70;99.90
42715;DHT22;28351;51.480;5.706;2022-12-20T13:51:46;10.70;99.90
42715;DHT22;28351;51.480;5.706;2022-12-20T13:54:17;10.70;99.90
42715;DHT22;28351;51.480;5.706;2022-12-20T13:56:47;10.70;99.90
42715;DHT22;28351;51.480;5.706;2022-12-20T13:59:25;10.60;99.90
42715;DHT22;28351;51.480;5.706;2022-12-20T14:01:57;10.60;99.90
42715;DHT22;28351;51.480;5.706;2022-12-20T14:04:26;10.60;99.90
42715;DHT22;28351;51.480;5.706;2022-12-20T14:06:56;10.60;99.90
42715;DHT22;28351;51.480;5.706;2022-12-20T14:09:34;10.60;99.90
42715;DHT22;28351;51.480;5.706;2022-12-20T14:12:17;10.60;99.90
42715;DHT22;28351;51.480;5.706;2022-12-20T14:17:26;10.60;99.90
42715;DHT22;28351;51.480;5.706;2022-12-20T14:22:54;10.60;99.90
42715;DHT22;28351;51.480;5.706;2022-12-20T14:28:07;10.50;99.90
42715;DHT22;28351;51.480;5.706;2022-12-20T14:30:42;10.50;99.90
42715;DHT22;28351;51.480;5.706;2022-12-20T14:33:18;10.50;99.90
42715;DHT22;28351;51.480;5.706;2022-12-20T14:35:47;10.50;99.90
42715;DHT22;28351;51.480;5.706;2022-12-20T14:38:23;10.50;99.90
42715;DHT22;28351;51.480;5.706;2022-12-20T14:40:52;10.50;99.90
42715;DHT22;28351;51.480;5.706;2022-12-20T14:43:26;10.50;99.90
42715;DHT22;28351;51.480;5.706;2022-12-20T14:46:20;10.50;99.90
42715;DHT22;28351;51.480;5.706;2022-12-20T14:48:47;10.50;99.90
42715;DHT22;28351;51.480;5.706;2022-12-20T14:51:19;10.50;99.90
42715;DHT22;28351;51.480;5.706;2022-12-20T14:53:48;10.40;99.90
42715;DHT22;28351;51.480;5.706;2022-12-20T14:56:16;10.40;99.90
42715;DHT22;28351;51.480;5.706;2022-12-20T14:58:42;10.40;99.90
42715;DHT22;28351;51.480;5.706;2022-12-20T15:03:56;10.40;99.90
42715;DHT22;28351;51.480;5.706;2022-12-20T15:06:38;10.40;99.90
42715;DHT22;28351;51.480;5.706;2022-12-20T15:09:08;10.40;99.90
42715;DHT22;28351;51.480;5.706;2022-12-20T15:11:35;10.40;99.90
42715;DHT22;28351;51.480;5.706;2022-12-20T15:14:04;10.30;99.90
42715;DHT22;28351;51.480;5.706;2022-12-20T15:16:32;10.30;99.90
42715;DHT22;28351;51.480;5.706;2022-12-20T15:19:00;10.30;99.90
42715;DHT22;28351;51.480;5.706;2022-12-20T15:21:38;10.30;99.90
42715;DHT22;28351;51.480;5.706;2022-12-20T15:24:12;10.30;99.90
42715;DHT22;28351;51.480;5.706;2022-12-20T15:26:38;10.30;99.90
42715;DHT22;28351;51.480;5.706;2022-12-20T15:29:05;10.30;99.90
42715;DHT22;28351;51.480;5.706;2022-12-20T15:31:33;10.30;99.90
42715;DHT22;28351;51.480;5.706;2022-12-20T15:34:05;10.30;99.90
42715;DHT22;28351;51.480;5.706;2022-12-20T15:36:38;10.30;99.90
42715;DHT22;28351;51.480;5.706;2022-12-20T15:39:04;10.30;99.90
42715;DHT22;28351;51.480;5.706;2022-12-20T15:41:32;10.30;99.90
42715;DHT22;28351;51.480;5.706;2022-12-20T15:44:05;10.30;99.90
42715;DHT22;28351;51.480;5.706;2022-12-20T15:46:32;10.30;99.90
42715;DHT22;28351;51.480;5.706;2022-12-20T15:48:57;10.30;99.90
42715;DHT22;28351;51.480;5.706;2022-12-20T15:53:56;10.30;99.90
42715;DHT22;28351;51.480;5.706;2022-12-20T15:56:23;10.30;99.90
42715;DHT22;28351;51.480;5.706;2022-12-20T15:58:49;10.30;99.90
42715;DHT22;28351;51.480;5.706;2022-12-20T16:01:27;10.30;99.90
42715;DHT22;28351;51.480;5.706;2022-12-20T16:03:53;10.30;99.90
42715;DHT22;28351;51.480;5.706;2022-12-20T16:06:19;10.30;99.90
42715;DHT22;28351;51.480;5.706;2022-12-20T16:08:45;10.30;99.90
42715;DHT22;28351;51.480;5.706;2022-12-20T16:11:29;10.30;99.90
42715;DHT22;28351;51.480;5.706;2022-12-20T16:13:58;10.30;99.90
42715;DHT22;28351;51.480;5.706;2022-12-20T16:16:26;10.30;99.90
42715;DHT22;28351;51.480;5.706;2022-12-20T16:18:52;10.30;99.90
42715;DHT22;28351;51.480;5.706;2022-12-20T16:21:20;10.30;99.90
42715;DHT22;28351;51.480;5.706;2022-12-20T16:23:47;10.30;99.90
42715;DHT22;28351;51.480;5.706;2022-12-20T16:26:15;10.30;99.90
42715;DHT22;28351;51.480;5.706;2022-12-20T16:28:42;10.30;99.90
42715;DHT22;28351;51.480;5.706;2022-12-20T16:33:51;10.20;99.90
42715;DHT22;28351;51.480;5.706;2022-12-20T16:36:17;10.20;99.90
42715;DHT22;28351;51.480;5.706;2022-12-20T16:38:43;10.20;99.90
42715;DHT22;28351;51.480;5.706;2022-12-20T16:41:14;10.20;99.90
42715;DHT22;28351;51.480;5.706;2022-12-20T16:43:40;10.20;99.90
42715;DHT22;28351;51.480;5.706;2022-12-20T16:46:13;10.20;99.90
42715;DHT22;28351;51.480;5.706;2022-12-20T16:48:39;10.20;99.90
42715;DHT22;28351;51.480;5.706;2022-12-20T16:51:25;10.20;99.90
42715;DHT22;28351;51.480;5.706;2022-12-20T16:54:00;10.20;99.90
42715;DHT22;28351;51.480;5.706;2022-12-20T16:56:26;10.20;99.90
42715;DHT22;28351;51.480;5.706;2022-12-20T16:58:52;10.20;99.90
42715;DHT22;28351;51.480;5.706;2022-12-20T17:01:24;10.30;99.90
42715;DHT22;28351;51.480;5.706;2022-12-20T17:03:53;10.20;99.90
42715;DHT22;28351;51.480;5.706;2022-12-20T17:06:19;10.20;99.90
42715;DHT22;28351;51.480;5.706;2022-12-20T17:08:45;10.20;99.90
42715;DHT22;28351;51.480;5.706;2022-12-20T17:13:38;10.20;99.90
42715;DHT22;28351;51.480;5.706;2022-12-20T17:16:14;10.20;99.90
42715;DHT22;28351;51.480;5.706;2022-12-20T17:18:41;10.20;99.90
42715;DHT22;28351;51.480;5.706;2022-12-20T17:21:37;10.20;99.90
42715;DHT22;28351;51.480;5.706;2022-12-20T17:24:07;10.20;99.90
42715;DHT22;28351;51.480;5.706;2022-12-20T17:26:38;10.20;99.90
42715;DHT22;28351;51.480;5.706;2022-12-20T17:29:04;10.20;99.90
42715;DHT22;28351;51.480;5.706;2022-12-20T17:31:34;10.20;99.90
42715;DHT22;28351;51.480;5.706;2022-12-20T17:34:17;10.20;99.90
42715;DHT22;28351;51.480;5.706;2022-12-20T17:36:44;10.20;99.90
42715;DHT22;28351;51.480;5.706;2022-12-20T17:39:10;10.20;99.90
42715;DHT22;28351;51.480;5.706;2022-12-20T17:41:36;10.20;99.90
42715;DHT22;28351;51.480;5.706;2022-12-20T17:44:03;10.20;99.90
42715;DHT22;28351;51.480;5.706;2022-12-20T17:46:29;10.20;99.90
42715;DHT22;28351;51.480;5.706;2022-12-20T17:48:55;10.20;99.90
42715;DHT22;28351;51.480;5.706;2022-12-20T17:51:25;10.20;99.90
42715;DHT22;28351;51.480;5.706;2022-12-20T17:53:53;10.20;99.90
42715;DHT22;28351;51.480;5.706;2022-12-20T17:56:25;10.20;99.90
42715;DHT22;28351;51.480;5.706;2022-12-20T17:58:52;10.20;99.90
42715;DHT22;28351;51.480;5.706;2022-12-20T18:01:20;10.20;99.90
42715;DHT22;28351;51.480;5.706;2022-12-20T18:03:53;10.20;99.90
42715;DHT22;28351;51.480;5.706;2022-12-20T18:06:20;10.20;99.90